Time;durP1;ratioP1;P1;durP2;ratioP2;P2;SDS_P1;SDS_P2;PMS_P1;PMS_P2;Temp;Humidity;BMP_temperature;BMP_pressure;BME280_temperature;BME280_humidity;BME280_pressure;Samples;Min_cycle;Max_cycle;Signal;HPM_P1;HPM_P2
2022/11/18 00:01:20;;;;;;;2.63;1.23;;;;;;;6.27;100.00;92143.75;4876691;29;20055;-50
2022/11/18 00:03:48;;;;;;;3.20;1.40;;;;;;;6.32;100.00;92141.28;4892478;29;20061;-53
2022/11/18 00:06:21;;;;;;;2.60;1.27;;;;;;;6.33;100.00;92144.75;4876522;29;20438;-49
2022/11/18 00:08:48;;;;;;;2.70;1.30;;;;;;;6.32;100.00;92140.50;4875980;29;20486;-50
2022/11/18 00:14:19;;;;;;;2.63;1.20;;;;;;;6.36;100.00;92144.66;4892637;29;20083;-52
2022/11/18 00:16:49;;;;;;;7.25;1.58;;;;;;;6.43;100.00;92148.38;4892815;29;20055;-54
2022/11/18 00:19:17;;;;;;;2.53;1.23;;;;;;;6.42;100.00;92144.91;4892839;29;20045;-58
2022/11/18 00:21:44;;;;;;;2.90;1.42;;;;;;;6.39;100.00;92141.06;4882637;29;20059;-51
2022/11/18 00:24:11;;;;;;;3.10;1.50;;;;;;;6.50;100.00;92140.78;4889944;29;20093;-51
2022/11/18 00:26:38;;;;;;;2.70;1.42;;;;;;;6.45;100.00;92135.09;4892670;29;20107;-53
2022/11/18 00:29:05;;;;;;;3.15;1.52;;;;;;;6.46;100.00;92131.94;4893074;29;20053;-49
2022/11/18 00:31:31;;;;;;;2.90;1.40;;;;;;;6.37;100.00;92132.56;4875210;29;20073;-53
2022/11/18 00:33:58;;;;;;;2.90;1.27;;;;;;;6.37;100.00;92129.81;4891758;29;20055;-52
2022/11/18 00:36:25;;;;;;;3.40;1.70;;;;;;;6.35;100.00;92132.22;4892879;29;20060;-54
2022/11/18 00:38:52;;;;;;;3.15;1.25;;;;;;;6.33;100.00;92129.16;4893121;29;20053;-54
2022/11/18 00:41:19;;;;;;;2.70;1.33;;;;;;;6.34;100.00;92130.72;4897958;29;20060;-52
2022/11/18 00:43:46;;;;;;;2.63;1.30;;;;;;;6.35;100.00;92134.19;4892642;29;20044;-55
2022/11/18 00:46:12;;;;;;;2.50;1.20;;;;;;;6.35;100.00;92132.22;4876046;29;20051;-55
2022/11/18 00:48:39;;;;;;;3.40;1.67;;;;;;;6.36;100.00;92143.91;4878742;29;20045;-54
2022/11/18 00:51:17;;;;;;;3.20;1.73;;;;;;;6.36;100.00;92141.94;4880082;29;20048;-49
2022/11/18 00:53:44;;;;;;;3.05;1.40;;;;;;;6.33;100.00;92137.34;4895882;29;20056;-52
2022/11/18 00:56:11;;;;;;;3.00;1.47;;;;;;;6.32;100.00;92151.41;4896503;29;20052;-52
2022/11/18 00:58:37;;;;;;;2.92;1.42;;;;;;;6.33;100.00;92147.47;4896351;29;20421;-50
2022/11/18 01:01:04;;;;;;;10.60;4.38;;;;;;;6.38;100.00;92145.00;4878877;29;20645;-50
2022/11/18 01:03:31;;;;;;;3.58;1.38;;;;;;;6.34;100.00;92141.59;4896248;29;20059;-52
2022/11/18 01:05:58;;;;;;;2.67;1.50;;;;;;;6.29;100.00;92144.09;4895884;29;20466;-55
2022/11/18 01:08:25;;;;;;;2.63;1.23;;;;;;;6.28;100.00;92143.34;4896095;29;20633;-51
2022/11/18 01:10:52;;;;;;;2.85;1.30;;;;;;;6.28;100.00;92154.22;4895735;29;20478;-51
2022/11/18 01:13:22;;;;;;;2.63;1.30;;;;;;;6.25;100.00;92151.59;4896216;29;20044;-54
2022/11/18 01:15:59;;;;;;;2.35;1.20;;;;;;;6.25;100.00;92149.63;4895704;29;20052;-53
2022/11/18 01:18:29;;;;;;;2.58;1.25;;;;;;;6.24;100.00;92147.31;4879238;29;20055;-48
2022/11/18 01:21:00;;;;;;;2.93;1.00;;;;;;;6.29;100.00;92158.47;4895661;29;20417;-52
2022/11/18 01:23:27;;;;;;;2.33;1.30;;;;;;;6.31;100.00;92164.25;4895978;29;20088;-51
2022/11/18 01:25:54;;;;;;;2.50;1.10;;;;;;;6.37;100.00;92167.22;4878762;29;20302;-54
2022/11/18 01:28:21;;;;;;;2.10;1.08;;;;;;;6.38;100.00;92168.75;4878797;29;20045;-52
2022/11/18 01:30:49;;;;;;;2.70;1.50;;;;;;;6.45;100.00;92173.22;4894346;29;20045;-55
2022/11/18 01:33:16;;;;;;;2.90;1.00;;;;;;;6.48;100.00;92177.81;4896282;29;20045;-52
2022/11/18 01:35:43;;;;;;;12.70;5.25;;;;;;;6.51;100.00;92180.44;4895397;29;20506;-50
2022/11/18 01:38:12;;;;;;;2.67;1.40;;;;;;;6.43;100.00;92175.63;4895666;29;20632;-49
2022/11/18 01:40:40;;;;;;;2.20;1.00;;;;;;;6.49;100.00;92173.91;4907305;29;20509;-53
2022/11/18 01:43:15;;;;;;;2.22;1.10;;;;;;;6.47;100.00;92185.22;4875991;29;20382;-54
2022/11/18 01:45:44;;;;;;;2.20;1.00;;;;;;;6.46;100.00;92191.09;4872289;29;20044;-52
2022/11/18 01:48:32;;;;;;;2.28;1.33;;;;;;;6.46;100.00;92174.75;4895842;29;20392;-49
2022/11/18 01:51:09;;;;;;;2.10;1.20;;;;;;;6.46;100.00;92167.34;4895084;29;20045;-53
2022/11/18 01:53:40;;;;;;;2.42;0.75;;;;;;;6.47;100.00;92177.03;4878656;29;20052;-50
2022/11/18 01:56:13;;;;;;;1.90;0.93;;;;;;;6.53;100.00;92186.22;4877683;29;20052;-55
2022/11/18 01:58:48;;;;;;;1.70;0.83;;;;;;;6.50;100.00;92187.09;4893998;29;20400;-52
2022/11/18 02:01:15;;;;;;;2.30;0.95;;;;;;;6.51;100.00;92182.41;4895316;29;20044;-49
2022/11/18 02:03:44;;;;;;;2.40;1.00;;;;;;;6.50;100.00;92192.56;4877970;29;20899;-52
2022/11/18 02:06:12;;;;;;;2.50;0.60;;;;;;;6.49;100.00;92199.19;4878213;29;20049;-54
2022/11/18 02:08:40;;;;;;;1.60;0.60;;;;;;;6.52;100.00;92195.59;4877677;29;20041;-53
2022/11/18 02:11:49;;;;;;;2.53;1.03;;;;;;;6.52;100.00;92194.81;4895216;29;20104;-53
2022/11/18 02:14:02;;;;;;;1.70;0.65;;;;;;;6.50;100.00;92192.56;4894938;29;20055;-51
2022/11/18 02:16:51;;;;;;;1.60;0.68;;;;;;;6.49;100.00;92195.69;4894796;29;20050;-55
2022/11/18 02:19:45;;;;;;;1.52;0.52;;;;;;;6.57;100.00;92197.03;4877814;29;20725;-54
2022/11/18 02:22:38;;;;;;;1.75;1.00;;;;;;;6.50;100.00;92197.22;4894086;29;20427;-52
2022/11/18 02:25:14;;;;;;;1.57;0.60;;;;;;;6.53;100.00;92207.25;4848438;29;20634;-53
2022/11/18 02:28:02;;;;;;;3.67;0.70;;;;;;;6.51;100.00;92199.50;4894317;29;20067;-55
2022/11/18 02:30:32;;;;;;;1.40;0.50;;;;;;;6.48;100.00;92203.13;4894502;29;20113;-50
2022/11/18 02:33:07;;;;;;;2.00;0.65;;;;;;;6.48;100.00;92203.13;4889809;29;20052;-51
2022/11/18 02:35:45;;;;;;;1.63;0.63;;;;;;;6.49;100.00;92210.09;4894434;29;20064;-53
2022/11/18 02:38:22;;;;;;;1.80;0.90;;;;;;;6.45;100.00;92208.66;4894001;29;20689;-51
2022/11/18 02:40:57;;;;;;;1.70;0.65;;;;;;;6.50;100.00;92199.94;4906493;29;20489;-53
2022/11/18 02:43:29;;;;;;;1.70;0.75;;;;;;;6.48;100.00;92205.84;4894859;29;20053;-55
2022/11/18 02:46:01;;;;;;;2.10;0.90;;;;;;;6.42;100.00;92204.84;4893856;29;20107;-48
2022/11/18 02:48:32;;;;;;;1.67;0.85;;;;;;;6.51;100.00;92207.69;4894201;29;20469;-51
2022/11/18 02:51:02;;;;;;;2.40;0.50;;;;;;;6.50;100.00;92202.66;4893876;29;20049;-50
2022/11/18 02:53:30;;;;;;;1.85;0.60;;;;;;;6.56;100.00;92209.13;4894230;29;20103;-53
2022/11/18 02:55:59;;;;;;;1.98;0.70;;;;;;;6.63;100.00;92205.44;4894011;29;20064;-52
2022/11/18 02:58:25;;;;;;;1.73;0.80;;;;;;;6.56;100.00;92200.94;4894042;29;20053;-59
2022/11/18 03:00:57;;;;;;;1.75;0.63;;;;;;;6.59;100.00;92203.56;4877122;29;20051;-57
2022/11/18 03:03:30;;;;;;;2.80;0.70;;;;;;;6.56;100.00;92211.84;4894343;29;20056;-52
2022/11/18 03:06:06;;;;;;;2.78;0.60;;;;;;;6.59;100.00;92209.03;4893788;29;20045;-54
2022/11/18 03:08:57;;;;;;;1.65;0.70;;;;;;;6.58;100.00;92212.19;4877615;29;20063;-52
2022/11/18 03:11:28;;;;;;;1.70;0.68;;;;;;;6.48;100.00;92232.31;4876587;29;20111;-51
2022/11/18 03:14:25;;;;;;;2.20;0.80;;;;;;;6.51;100.00;92232.22;4893489;29;20066;-53
2022/11/18 03:16:59;;;;;;;2.03;0.80;;;;;;;6.43;100.00;92236.34;4877050;29;20052;-53
2022/11/18 03:19:41;;;;;;;1.70;0.60;;;;;;;6.42;100.00;92245.72;4894020;29;20052;-56
2022/11/18 03:22:14;;;;;;;1.65;0.85;;;;;;;6.29;100.00;92251.09;4876413;29;20052;-50
2022/11/18 03:24:50;;;;;;;1.98;0.80;;;;;;;6.26;100.00;92260.13;4876398;29;20058;-53
2022/11/18 03:27:30;;;;;;;2.78;1.25;;;;;;;6.29;100.00;92261.97;4881658;29;20111;-51
2022/11/18 03:30:03;;;;;;;2.10;1.03;;;;;;;6.34;100.00;92269.66;4893344;29;20057;-51
2022/11/18 03:32:35;;;;;;;2.38;1.05;;;;;;;6.27;100.00;92277.25;4892113;29;20083;-51
2022/11/18 03:35:19;;;;;;;1.70;0.80;;;;;;;6.24;100.00;92292.50;4893661;29;20056;-50
2022/11/18 03:37:49;;;;;;;2.70;0.50;;;;;;;6.29;100.00;92299.38;4881005;29;20053;-50
2022/11/18 03:40:25;;;;;;;2.22;0.60;;;;;;;6.27;100.00;92307.19;4898972;29;20112;-49
2022/11/18 03:43:23;;;;;;;1.43;0.53;;;;;;;6.31;100.00;92308.63;4892875;29;20049;-49
2022/11/18 03:45:55;;;;;;;1.63;0.50;;;;;;;6.18;100.00;92316.75;4884130;29;20053;-51
2022/11/18 03:48:27;;;;;;;1.50;0.70;;;;;;;6.20;100.00;92303.47;4876509;29;20110;-51
2022/11/18 03:51:00;;;;;;;1.40;0.60;;;;;;;6.09;100.00;92292.06;4892673;29;20041;-49
2022/11/18 03:53:31;;;;;;;1.45;0.50;;;;;;;6.15;100.00;92316.81;4893288;29;20516;-54
2022/11/18 03:56:13;;;;;;;6.53;3.50;;;;;;;6.19;100.00;92331.88;4893098;29;21395;-56
2022/11/18 03:58:56;;;;;;;3.60;1.42;;;;;;;6.22;100.00;92343.13;4892954;29;20048;-56
2022/11/18 04:01:56;;;;;;;1.40;0.35;;;;;;;6.12;99.46;92331.31;4893294;29;20100;-51
2022/11/18 04:04:25;;;;;;;1.52;0.60;;;;;;;6.22;98.33;92334.94;4892277;29;21534;-51
2022/11/18 04:07:31;;;;;;;1.90;0.50;;;;;;;5.92;97.57;92332.13;4892813;29;20523;-53
2022/11/18 04:10:12;;;;;;;1.80;0.60;;;;;;;5.92;98.81;92336.81;4893066;29;20040;-54
2022/11/18 04:12:51;;;;;;;1.50;0.60;;;;;;;5.87;98.67;92324.44;4892409;29;20060;-53
2022/11/18 04:15:18;;;;;;;2.70;0.70;;;;;;;5.95;98.61;92331.28;4893074;29;20056;-52
2022/11/18 04:17:45;;;;;;;1.50;0.40;;;;;;;5.88;97.63;92330.69;4892555;29;20062;-50
2022/11/18 04:20:15;;;;;;;1.42;0.50;;;;;;;5.84;97.81;92333.47;4876641;29;20112;-53
2022/11/18 04:22:43;;;;;;;1.60;0.47;;;;;;;5.81;97.81;92337.03;4877802;29;20115;-53
2022/11/18 04:25:10;;;;;;;2.65;0.30;;;;;;;5.73;98.65;92339.16;4897045;29;20041;-54
2022/11/18 04:27:37;;;;;;;1.77;0.70;;;;;;;5.70;99.65;92342.72;4896867;29;20076;-55
2022/11/18 04:30:05;;;;;;;1.30;0.40;;;;;;;5.49;99.47;92341.22;4896090;29;21162;-51
2022/11/18 04:32:32;;;;;;;1.65;0.60;;;;;;;5.49;100.00;92349.38;4895189;29;20263;-53
2022/11/18 04:34:58;;;;;;;1.40;0.47;;;;;;;5.49;97.67;92340.47;4896650;29;20052;-51
2022/11/18 04:37:25;;;;;;;1.40;0.50;;;;;;;5.68;97.69;92349.78;4880440;29;20075;-55
2022/11/18 04:39:52;;;;;;;2.05;0.93;;;;;;;5.66;98.30;92350.22;4884625;29;20052;-51
2022/11/18 04:42:19;;;;;;;1.63;0.50;;;;;;;5.64;98.52;92351.81;4896890;29;20055;-51
2022/11/18 04:44:45;;;;;;;1.90;0.68;;;;;;;5.82;98.68;92359.59;4896162;29;20048;-49
2022/11/18 04:47:12;;;;;;;2.30;1.20;;;;;;;5.72;100.00;92356.69;4879881;29;20040;-49
2022/11/18 04:49:39;;;;;;;2.38;1.08;;;;;;;5.70;100.00;92364.50;4879351;29;20048;-53
2022/11/18 04:52:06;;;;;;;2.88;1.40;;;;;;;5.59;100.00;92353.06;4896515;29;20036;-55
2022/11/18 04:54:32;;;;;;;3.55;1.70;;;;;;;5.66;100.00;92349.44;4896498;29;20048;-58
2022/11/18 04:56:59;;;;;;;3.80;2.30;;;;;;;5.57;100.00;92356.25;4895913;29;20053;-50
2022/11/18 04:59:28;;;;;;;4.33;2.03;;;;;;;5.66;100.00;92365.78;4896792;29;20049;-53
2022/11/18 05:01:55;;;;;;;3.00;1.10;;;;;;;5.50;100.00;92364.53;4895584;29;20065;-57
2022/11/18 05:04:25;;;;;;;2.30;0.70;;;;;;;5.64;100.00;92363.47;4896356;29;20053;-55
2022/11/18 05:06:52;;;;;;;46.97;22.35;;;;;;;5.63;100.00;92356.47;4895514;29;20045;-54
2022/11/18 05:09:19;;;;;;;10.10;4.07;;;;;;;5.74;100.00;92362.47;4896169;29;20506;-51
2022/11/18 05:14:31;;;;;;;2.45;0.80;;;;;;;5.57;100.00;92369.06;4883635;29;20044;-53
2022/11/18 05:17:00;;;;;;;3.05;1.00;;;;;;;5.44;100.00;92371.66;4895553;29;20056;-55
2022/11/18 05:19:27;;;;;;;2.15;0.93;;;;;;;5.43;100.00;92370.13;4896221;29;20051;-51
2022/11/18 05:21:54;;;;;;;2.30;1.30;;;;;;;5.36;100.00;92371.03;4895618;29;20440;-57
2022/11/18 05:24:22;;;;;;;3.10;1.33;;;;;;;5.43;100.00;92372.84;4896164;29;20048;-54
2022/11/18 05:26:53;;;;;;;4.88;1.00;;;;;;;5.36;100.00;92373.00;4895212;29;20044;-53
2022/11/18 05:29:20;;;;;;;2.13;0.80;;;;;;;5.26;100.00;92379.44;4895840;29;20049;-54
2022/11/18 05:31:48;;;;;;;1.92;0.85;;;;;;;5.13;100.00;92380.06;4878068;29;20056;-53
2022/11/18 05:34:16;;;;;;;2.30;1.30;;;;;;;5.07;100.00;92381.72;4877960;29;20048;-52
2022/11/18 05:36:43;;;;;;;3.17;1.87;;;;;;;4.92;100.00;92383.19;4895114;29;20119;-52
2022/11/18 05:39:09;;;;;;;3.65;1.77;;;;;;;4.79;100.00;92381.09;4898270;29;20083;-54
2022/11/18 05:44:21;;;;;;;3.97;1.95;;;;;;;4.78;100.00;92395.06;4887174;29;20123;-52
2022/11/18 05:46:48;;;;;;;3.55;1.60;;;;;;;4.79;100.00;92397.38;4894960;29;20048;-55
2022/11/18 05:49:15;;;;;;;3.70;1.60;;;;;;;4.66;100.00;92399.16;4895756;29;20470;-52
2022/11/18 05:51:42;;;;;;;6.10;2.00;;;;;;;4.68;100.00;92402.22;4894734;29;20056;-53
2022/11/18 05:54:13;;;;;;;4.10;2.40;;;;;;;4.66;100.00;92406.56;4878529;29;20057;-53
2022/11/18 05:56:46;;;;;;;5.53;2.33;;;;;;;4.64;100.00;92406.97;4894314;29;20696;-53
2022/11/18 05:59:13;;;;;;;5.95;2.80;;;;;;;4.56;100.00;92417.19;4895234;29;20051;-50
2022/11/18 06:01:46;;;;;;;7.20;3.20;;;;;;;4.59;100.00;92421.78;4890026;29;20041;-51
2022/11/18 06:04:25;;;;;;;8.48;4.28;;;;;;;4.61;100.00;92426.81;4893663;29;20107;-53
2022/11/18 06:06:57;;;;;;;7.80;4.22;;;;;;;4.54;100.00;92426.94;4894008;29;20052;-49
2022/11/18 06:09:29;;;;;;;22.58;10.50;;;;;;;4.45;100.00;92430.19;4878068;29;20461;-52
2022/11/18 06:11:59;;;;;;;10.60;5.93;;;;;;;4.20;100.00;92436.78;4894279;29;20067;-51
2022/11/18 06:14:47;;;;;;;13.80;7.50;;;;;;;4.37;100.00;92440.41;4895218;29;20103;-51
2022/11/18 06:17:21;;;;;;;9.63;5.70;;;;;;;4.50;100.00;92435.13;4894084;29;20416;-51
2022/11/18 06:19:48;;;;;;;12.02;7.50;;;;;;;4.55;100.00;92448.25;4894402;29;20441;-50
2022/11/18 06:22:15;;;;;;;12.50;6.60;;;;;;;4.53;100.00;92453.34;4894725;29;20052;-55
2022/11/18 06:24:43;;;;;;;5.07;3.15;;;;;;;4.51;100.00;92450.25;4881114;29;20426;-54
2022/11/18 06:27:10;;;;;;;5.13;2.30;;;;;;;4.62;100.00;92452.03;4893590;29;20045;-50
2022/11/18 06:29:37;;;;;;;5.45;3.08;;;;;;;4.72;100.00;92454.56;4877871;29;20063;-52
2022/11/18 06:32:04;;;;;;;8.35;4.07;;;;;;;4.62;100.00;92460.19;4893436;29;20648;-50
2022/11/18 06:34:31;;;;;;;4.80;1.88;;;;;;;4.66;100.00;92456.22;4894230;29;20482;-48
2022/11/18 06:37:16;;;;;;;3.35;1.63;;;;;;;4.57;100.00;92464.16;4893834;29;20650;-54
2022/11/18 06:39:43;;;;;;;4.00;2.20;;;;;;;4.60;100.00;92460.59;4901248;29;20102;-53
2022/11/18 06:42:10;;;;;;;4.93;2.50;;;;;;;4.60;100.00;92468.75;4896495;29;20454;-54
2022/11/18 06:44:37;;;;;;;4.93;2.70;;;;;;;4.68;100.00;92466.69;4894798;29;20044;-51
2022/11/18 06:47:04;;;;;;;7.97;4.10;;;;;;;4.66;100.00;92479.91;4887069;29;21427;-49
2022/11/18 06:49:31;;;;;;;13.13;5.70;;;;;;;4.55;100.00;92482.81;4894058;29;20149;-52
2022/11/18 06:51:57;;;;;;;8.43;4.70;;;;;;;4.72;100.00;92479.03;4893792;29;20104;-54
2022/11/18 06:54:24;;;;;;;11.82;6.57;;;;;;;4.69;100.00;92479.06;4894521;29;20474;-56
2022/11/18 06:56:51;;;;;;;12.30;7.40;;;;;;;4.77;100.00;92483.25;4893479;29;20077;-52
2022/11/18 06:59:22;;;;;;;13.15;7.68;;;;;;;4.78;100.00;92490.19;4877612;29;20056;-50
2022/11/18 07:01:50;;;;;;;11.57;6.40;;;;;;;4.86;100.00;92488.91;4893589;29;20063;-51
2022/11/18 07:04:17;;;;;;;10.20;5.53;;;;;;;4.79;100.00;92494.47;4894018;29;20080;-55
2022/11/18 07:06:43;;;;;;;9.77;5.60;;;;;;;4.90;100.00;92497.75;4893326;29;20108;-49
2022/11/18 07:09:10;;;;;;;10.10;5.55;;;;;;;4.91;100.00;92499.31;4892590;29;20063;-51
2022/11/18 07:11:40;;;;;;;9.43;5.72;;;;;;;4.93;100.00;92507.81;4894200;29;20063;-52
2022/11/18 07:14:07;;;;;;;8.55;4.78;;;;;;;5.16;100.00;92506.25;4893074;29;20342;-54
2022/11/18 07:16:35;;;;;;;8.90;5.20;;;;;;;5.29;100.00;92511.84;4893936;29;20453;-55
2022/11/18 07:19:08;;;;;;;7.03;3.72;;;;;;;5.45;100.00;92514.66;4893305;29;20060;-53
2022/11/18 07:21:35;;;;;;;4.70;2.83;;;;;;;5.38;100.00;92518.28;4877038;29;20055;-53
2022/11/18 07:24:05;;;;;;;7.15;3.35;;;;;;;5.49;100.00;92523.53;4876199;29;20052;-53
2022/11/18 07:26:33;;;;;;;4.60;3.60;;;;;;;5.67;100.00;92517.75;4893756;29;20044;-55
2022/11/18 07:29:00;;;;;;;2.30;1.13;;;;;;;5.78;99.47;92528.44;4892886;29;20059;-52
2022/11/18 07:31:27;;;;;;;2.85;1.40;;;;;;;5.79;98.60;92535.41;4893257;29;20092;-52
2022/11/18 07:33:54;;;;;;;2.47;0.98;;;;;;;5.78;97.83;92539.34;4892616;29;20044;-53
2022/11/18 07:36:25;;;;;;;2.20;0.98;;;;;;;5.80;98.97;92529.56;4893427;29;20151;-52
2022/11/18 07:38:59;;;;;;;4.32;1.70;;;;;;;5.74;97.84;92541.34;4894207;29;20056;-54
2022/11/18 07:41:28;;;;;;;2.57;1.00;;;;;;;5.86;97.88;92550.84;4896343;29;20048;-51
2022/11/18 07:43:56;;;;;;;1.80;0.60;;;;;;;5.75;97.43;92551.03;4892846;29;20052;-55
2022/11/18 07:46:30;;;;;;;2.30;1.00;;;;;;;5.64;98.69;92553.22;4893117;29;20536;-52
2022/11/18 07:48:59;;;;;;;2.70;1.30;;;;;;;5.67;98.38;92561.28;4892767;29;20056;-53
2022/11/18 07:51:29;;;;;;;2.10;0.80;;;;;;;5.82;98.91;92563.78;4893004;29;20055;-50
2022/11/18 07:53:56;;;;;;;2.20;0.87;;;;;;;5.84;97.18;92573.03;4892494;29;20048;-50
2022/11/18 07:56:22;;;;;;;1.67;0.90;;;;;;;5.98;97.18;92569.31;4892795;29;20080;-49
2022/11/18 07:58:54;;;;;;;5.07;1.77;;;;;;;5.97;97.52;92568.53;4875248;29;20041;-54
2022/11/18 08:01:27;;;;;;;2.22;0.90;;;;;;;6.17;98.13;92578.66;4893018;29;20087;-53
2022/11/18 08:03:55;;;;;;;2.58;1.05;;;;;;;6.32;94.98;92581.88;4875813;29;20048;-52
2022/11/18 08:06:22;;;;;;;3.53;1.53;;;;;;;6.46;94.47;92586.22;4893095;29;20044;-54
2022/11/18 08:08:49;;;;;;;6.30;2.10;;;;;;;6.53;94.13;92586.09;4890700;29;20056;-52
2022/11/18 08:11:18;;;;;;;15.05;4.63;;;;;;;6.61;94.48;92587.47;4893647;29;20115;-52
2022/11/18 08:13:50;;;;;;;5.15;1.65;;;;;;;6.68;92.74;92592.78;4892545;29;20554;-52
2022/11/18 08:16:20;;;;;;;1.92;0.80;;;;;;;6.55;93.27;92592.66;4876204;29;20056;-54
2022/11/18 08:18:47;;;;;;;4.77;2.80;;;;;;;6.97;91.39;92587.44;4885236;29;20056;-56
2022/11/18 08:21:17;;;;;;;6.00;3.83;;;;;;;7.29;90.51;92596.06;4892761;29;20041;-53
2022/11/18 08:23:49;;;;;;;3.40;1.75;;;;;;;8.15;88.23;92600.09;4892451;29;20051;-54
2022/11/18 08:26:16;;;;;;;3.15;1.42;;;;;;;9.35;81.70;92601.66;4892873;29;20401;-54
2022/11/18 08:28:43;;;;;;;2.95;1.25;;;;;;;8.85;78.69;92605.94;4892338;29;20056;-51
2022/11/18 08:31:12;;;;;;;6.70;0.70;;;;;;;9.76;77.34;92604.69;4892616;29;20517;-54
2022/11/18 08:33:40;;;;;;;3.00;1.35;;;;;;;9.55;77.64;92604.16;4875800;29;20076;-53
2022/11/18 08:36:15;;;;;;;2.08;0.70;;;;;;;8.59;80.16;92603.19;4892649;29;20067;-51
2022/11/18 08:38:42;;;;;;;1.63;0.60;;;;;;;8.93;79.33;92601.03;4890972;29;20049;-55
2022/11/18 08:41:24;;;;;;;4.85;0.85;;;;;;;8.72;82.04;92599.72;4901874;29;20049;-58
2022/11/18 08:43:51;;;;;;;3.83;0.87;;;;;;;8.39;80.92;92610.75;4892002;29;20052;-55
2022/11/18 08:46:18;;;;;;;1.95;0.80;;;;;;;8.38;82.88;92607.25;4892723;29;20051;-54
2022/11/18 08:48:45;;;;;;;1.75;0.77;;;;;;;7.71;83.14;92616.06;4891965;29;20207;-53
2022/11/18 08:51:12;;;;;;;2.60;0.80;;;;;;;7.64;85.53;92608.06;4876182;29;20095;-55
2022/11/18 08:53:39;;;;;;;2.58;0.90;;;;;;;8.37;84.46;92615.88;4892073;29;20138;-56
2022/11/18 08:56:06;;;;;;;1.50;0.60;;;;;;;7.56;83.19;92614.91;4892809;29;20156;-52
2022/11/18 08:58:33;;;;;;;2.45;0.73;;;;;;;7.49;86.66;92624.03;4892424;29;20059;-52
2022/11/18 09:01:07;;;;;;;3.10;1.20;;;;;;;8.34;84.52;92614.78;4892009;29;20044;-52
2022/11/18 09:03:34;;;;;;;2.28;0.88;;;;;;;8.36;82.72;92614.38;4892882;29;20051;-50
2022/11/18 09:06:09;;;;;;;1.88;0.95;;;;;;;8.71;82.39;92623.56;4892307;29;20041;-53
2022/11/18 09:08:36;;;;;;;1.90;0.90;;;;;;;9.35;78.86;92623.56;4876369;29;20107;-49
2022/11/18 09:11:12;;;;;;;2.00;0.70;;;;;;;8.94;78.85;92621.72;4885075;29;20502;-53
2022/11/18 09:13:39;;;;;;;1.88;0.88;;;;;;;8.67;78.47;92628.38;4895860;29;20088;-52
2022/11/18 09:16:28;;;;;;;3.13;1.35;;;;;;;8.54;81.99;92625.59;4870337;29;20056;-53
2022/11/18 09:18:56;;;;;;;2.38;0.77;;;;;;;8.87;79.78;92630.91;4882494;29;20043;-56
2022/11/18 09:21:23;;;;;;;1.43;0.40;;;;;;;9.04;78.25;92620.63;4896197;29;20048;-55
2022/11/18 09:23:50;;;;;;;1.63;0.77;;;;;;;8.70;78.61;92632.19;4894282;29;20115;-56
2022/11/18 09:26:19;;;;;;;2.67;1.17;;;;;;;8.53;80.32;92636.97;4896001;29;20056;-54
2022/11/18 09:28:46;;;;;;;2.08;0.70;;;;;;;8.13;79.35;92631.75;4878541;29;20486;-55
2022/11/18 09:31:15;;;;;;;1.98;0.75;;;;;;;8.22;80.11;92631.91;4895401;29;20048;-56
2022/11/18 09:33:42;;;;;;;2.43;0.70;;;;;;;8.50;79.79;92635.09;4895460;29;20056;-52
2022/11/18 09:36:21;;;;;;;2.47;0.52;;;;;;;7.86;81.88;92637.56;4878560;29;20058;-51
2022/11/18 09:38:49;;;;;;;3.78;0.60;;;;;;;7.52;84.44;92633.31;4878378;29;20074;-52
2022/11/18 09:41:45;;;;;;;1.60;0.70;;;;;;;7.95;82.70;92635.75;4896623;29;20494;-53
2022/11/18 09:44:32;;;;;;;1.90;0.80;;;;;;;8.62;80.07;92648.03;4894302;29;20744;-54
2022/11/18 09:47:07;;;;;;;2.50;1.50;;;;;;;9.08;78.74;92642.44;4895073;29;20063;-54
2022/11/18 09:49:37;;;;;;;2.55;1.10;;;;;;;9.84;73.90;92655.31;4895623;29;20036;-52
2022/11/18 09:52:12;;;;;;;2.88;0.70;;;;;;;8.62;76.94;92653.50;4894136;29;20194;-54
2022/11/18 09:54:40;;;;;;;1.77;0.60;;;;;;;9.50;75.95;92651.28;4877976;29;20048;-57
2022/11/18 09:57:48;;;;;;;3.30;1.10;;;;;;;9.70;73.23;92661.22;4894920;29;20049;-56
2022/11/18 10:00:23;;;;;;;1.60;0.60;;;;;;;9.36;73.91;92662.69;4894212;29;22119;-53
2022/11/18 10:02:53;;;;;;;2.20;0.63;;;;;;;9.35;75.42;92666.63;4894963;29;20325;-57
2022/11/18 10:05:26;;;;;;;1.70;0.75;;;;;;;9.26;76.23;92670.03;4895431;29;20052;-53
2022/11/18 10:07:53;;;;;;;1.52;0.50;;;;;;;9.16;76.44;92668.38;4894375;29;20052;-55
2022/11/18 10:10:29;;;;;;;2.00;0.70;;;;;;;8.30;77.84;92671.53;4894854;29;20052;-53
2022/11/18 10:13:26;;;;;;;4.93;0.50;;;;;;;8.59;78.24;92671.56;4894443;29;20119;-52
2022/11/18 10:16:02;;;;;;;3.30;0.55;;;;;;;8.38;78.40;92678.34;4893172;29;20044;-52
2022/11/18 10:18:51;;;;;;;1.40;0.60;;;;;;;8.46;78.70;92684.41;4895071;29;20103;-57
2022/11/18 10:22:04;;;;;;;1.92;0.50;;;;;;;8.16;78.26;92677.38;4893628;29;20426;-54
2022/11/18 10:24:43;;;;;;;1.50;0.50;;;;;;;8.06;77.82;92679.19;4893424;29;20068;-56
2022/11/18 10:27:13;;;;;;;1.50;0.60;;;;;;;8.30;77.64;92687.94;4881772;29;20074;-55
2022/11/18 10:29:41;;;;;;;2.55;0.50;;;;;;;8.46;79.06;92687.16;4894261;29;20040;-53
2022/11/18 10:32:17;;;;;;;1.60;0.47;;;;;;;8.20;77.83;92697.19;4894262;29;20040;-53
2022/11/18 10:34:53;;;;;;;1.60;0.70;;;;;;;8.19;79.66;92692.94;4894263;29;20052;-54
2022/11/18 10:37:29;;;;;;;3.08;0.65;;;;;;;8.21;80.54;92685.06;4894679;29;20093;-56
2022/11/18 10:40:28;;;;;;;2.40;0.90;;;;;;;8.11;80.01;92689.59;4903677;29;20056;-54
2022/11/18 10:42:55;;;;;;;1.60;0.60;;;;;;;8.17;79.41;92689.84;4893826;29;20045;-56
2022/11/18 10:45:21;;;;;;;2.10;0.82;;;;;;;8.05;79.85;92693.25;4894503;29;20111;-54
2022/11/18 10:47:58;;;;;;;7.15;1.00;;;;;;;7.88;81.05;92695.25;4893623;29;20041;-53
2022/11/18 10:50:27;;;;;;;1.90;0.95;;;;;;;7.97;81.30;92690.72;4894363;29;20055;-51
2022/11/18 10:52:54;;;;;;;1.57;0.50;;;;;;;7.92;81.86;92687.75;4893785;29;20107;-57
2022/11/18 10:55:28;;;;;;;3.50;0.93;;;;;;;7.69;82.31;92694.94;4894247;29;20387;-54
2022/11/18 10:58:01;;;;;;;1.83;0.60;;;;;;;7.60;81.68;92687.31;4893372;29;20052;-59
2022/11/18 11:00:43;;;;;;;1.70;0.73;;;;;;;7.72;82.39;92687.84;4894221;29;20044;-55
2022/11/18 11:03:57;;;;;;;1.60;0.60;;;;;;;7.89;81.96;92699.53;4893173;29;20307;-54
2022/11/18 11:06:34;;;;;;;2.93;1.50;;;;;;;7.96;83.55;92694.66;4892892;29;20053;-56
2022/11/18 11:09:21;;;;;;;2.60;1.30;;;;;;;7.84;81.54;92698.06;4876395;29;20096;-50
2022/11/18 11:12:03;;;;;;;2.88;1.00;;;;;;;8.54;81.37;92698.66;4893167;29;20043;-55
2022/11/18 11:14:50;;;;;;;2.33;0.82;;;;;;;8.93;80.58;92696.78;4893864;29;20418;-54
2022/11/18 11:17:37;;;;;;;3.58;1.30;;;;;;;8.07;83.28;92697.13;4886707;29;20205;-53
2022/11/18 11:20:19;;;;;;;1.97;0.83;;;;;;;8.20;80.73;92695.22;4890896;29;20387;-53
2022/11/18 11:22:46;;;;;;;2.28;0.70;;;;;;;8.57;80.78;92698.56;4893095;29;20606;-53
2022/11/18 11:25:16;;;;;;;3.60;0.90;;;;;;;9.33;79.08;92705.38;4893605;29;20063;-55
2022/11/18 11:28:12;;;;;;;1.95;0.80;;;;;;;9.73;77.64;92710.41;4893037;29;20502;-57
2022/11/18 11:31:17;;;;;;;2.60;1.20;;;;;;;8.59;79.78;92720.00;4893219;29;20048;-54
2022/11/18 11:33:53;;;;;;;5.63;2.23;;;;;;;7.60;85.32;92735.69;4876152;29;20513;-53
2022/11/18 11:37:01;;;;;;;2.47;1.05;;;;;;;6.98;87.51;92732.75;4893495;29;20055;-53
2022/11/18 11:39:57;;;;;;;2.88;1.05;;;;;;;6.87;86.56;92732.22;4892407;29;20808;-55
2022/11/18 11:42:34;;;;;;;2.00;0.90;;;;;;;7.19;85.82;92732.31;4892626;29;21702;-51
2022/11/18 11:45:26;;;;;;;3.33;1.17;;;;;;;7.55;85.62;92728.78;4892973;29;20048;-53
2022/11/18 11:48:07;;;;;;;1.73;0.70;;;;;;;7.40;84.07;92722.91;4892820;29;20049;-53
2022/11/18 11:51:02;;;;;;;3.65;1.30;;;;;;;6.49;90.77;92727.88;4893661;29;20044;-55
2022/11/18 11:54:07;;;;;;;1.95;0.80;;;;;;;6.26;89.83;92736.09;4892594;29;21230;-56
2022/11/18 11:56:47;;;;;;;1.95;0.80;;;;;;;7.42;87.14;92727.91;4892541;29;20965;-54
2022/11/18 11:59:37;;;;;;;3.13;1.10;;;;;;;8.15;84.74;92736.72;4892184;29;21742;-54
2022/11/18 12:02:30;;;;;;;2.20;0.57;;;;;;;8.48;80.42;92739.44;4892373;29;20470;-57
2022/11/18 12:05:07;;;;;;;2.22;0.73;;;;;;;8.23;81.27;92740.06;4892758;29;20498;-54
2022/11/18 12:07:56;;;;;;;2.42;0.98;;;;;;;8.80;81.10;92740.53;4893205;29;20417;-51
2022/11/18 12:10:28;;;;;;;2.03;0.70;;;;;;;8.78;79.17;92738.22;4892356;29;20664;-54
2022/11/18 12:13:21;;;;;;;1.70;0.70;;;;;;;7.03;87.21;92745.16;4880250;29;20055;-55